Oak Harbor, Ohio
Current Conditions -  °F | °C
As of 7:12 AM on Thursday 18 Dec 2014 (Local Time) from KPCW Reporting Station
Overcast Overcast  
Wind Chill: 23°   Ceiling: 2800
Heat Index: 30°   Visibility: 10mi
Dew Point: 23°   Wind: 8mph
Humidity: 75%   Direction: 250°WSW
Pressure: 30.2"   Gusts: NA
Location:  41.51°N, 83.15°W
Report Text: KPCW 181212Z AUTO 25007KT 10SM OVC028 M01/M05 A3020 RMK AO2 $
Loading
Personal Weather Stations






























Interactive Weather Map New forecast layout! Learn more

10-Day Weather Forecast

Advertisements
Track Severe Weather on mobile